createdAt,value
2023-03-17T00:03:37.645Z,99.90
2023-03-17T00:08:32.636Z,96.60
2023-03-17T00:10:59.642Z,99.90
2023-03-17T00:13:26.681Z,99.90
2023-03-17T00:15:55.511Z,99.90
2023-03-17T00:18:22.097Z,99.90
2023-03-17T00:20:48.277Z,99.90
2023-03-17T00:23:20.062Z,99.90
2023-03-17T00:25:46.283Z,99.90
2023-03-17T00:28:20.832Z,99.90
2023-03-17T00:30:47.886Z,95.50
2023-03-17T00:33:17.574Z,99.90
2023-03-17T00:35:45.736Z,99.60
2023-03-17T00:38:16.396Z,95.50
2023-03-17T00:45:37.775Z,97.20
2023-03-17T00:48:19.221Z,97.40
2023-03-17T00:50:45.889Z,99.90
2023-03-17T00:53:13.210Z,98.70
2023-03-17T00:55:40.186Z,99.90
2023-03-17T00:58:43.995Z,97.30
2023-03-17T01:03:38.171Z,99.90
2023-03-17T01:13:25.415Z,99.90
2023-03-17T01:15:51.838Z,99.90
2023-03-17T01:18:21.165Z,96.60
2023-03-17T01:23:14.296Z,99.90
2023-03-17T01:25:40.902Z,99.90
2023-03-17T01:30:36.861Z,96.30
2023-03-17T01:40:28.318Z,96.30
2023-03-17T01:43:03.786Z,99.90
2023-03-17T01:46:08.721Z,96.40
2023-03-17T01:50:12.710Z,96.60
2023-03-17T01:55:10.244Z,99.80
2023-03-17T01:57:42.290Z,96.20
2023-03-17T02:00:15.446Z,96.70
2023-03-17T02:02:43.435Z,97.10
2023-03-17T02:05:11.591Z,97.00
2023-03-17T02:10:05.842Z,99.90
2023-03-17T02:17:26.134Z,97.40
2023-03-17T02:22:19.471Z,99.90
2023-03-17T02:24:55.697Z,97.50
2023-03-17T02:27:25.750Z,97.70
2023-03-17T02:29:52.027Z,99.90
2023-03-17T02:32:18.687Z,99.90
2023-03-17T02:34:46.326Z,95.90
2023-03-17T02:37:12.570Z,99.90
2023-03-17T02:39:38.876Z,97.70
2023-03-17T02:42:06.239Z,99.90
2023-03-17T02:44:33.588Z,96.90
2023-03-17T03:01:41.764Z,99.90
2023-03-17T03:04:08.070Z,99.90
2023-03-17T03:06:34.682Z,96.30
2023-03-17T03:23:43.162Z,99.90
2023-03-17T03:40:51.869Z,99.90
2023-03-17T03:48:18.451Z,99.90
2023-03-17T03:55:38.177Z,99.90
2023-03-17T04:02:58.365Z,97.40
2023-03-17T04:05:24.589Z,99.90
2023-03-17T04:15:14.717Z,97.50
2023-03-17T04:17:40.948Z,99.90
2023-03-17T04:20:08.532Z,99.90
2023-03-17T04:22:34.730Z,99.90
2023-03-17T04:29:54.887Z,99.90
2023-03-17T04:34:48.117Z,97.20
2023-03-17T04:37:14.248Z,99.90
2023-03-17T04:42:09.265Z,95.90
2023-03-17T04:47:02.374Z,99.90
2023-03-17T04:49:28.948Z,98.40
2023-03-17T04:51:55.138Z,97.20
2023-03-17T04:59:15.629Z,99.90
2023-03-17T05:11:35.239Z,99.90
2023-03-17T05:16:27.996Z,99.90
2023-03-17T05:31:10.729Z,97.40
2023-03-17T05:36:05.305Z,92.70
2023-03-17T05:48:18.103Z,93.50
2023-03-17T05:53:11.499Z,99.90
2023-03-17T05:55:37.763Z,92.70
2023-03-17T05:58:05.749Z,82.50
2023-03-17T06:05:27.727Z,75.20
2023-03-17T06:20:11.411Z,90.00
2023-03-17T06:22:37.664Z,79.40
2023-03-17T06:25:04.961Z,72.60
2023-03-17T06:27:32.046Z,81.20
2023-03-17T06:29:59.619Z,71.70
2023-03-17T06:37:20.869Z,71.70
2023-03-17T06:39:47.617Z,77.20
2023-03-17T06:42:14.031Z,67.80
2023-03-17T06:44:40.996Z,68.20
2023-03-17T06:47:07.419Z,68.70
2023-03-17T06:49:33.855Z,65.40
2023-03-17T06:52:00.181Z,64.50
2023-03-17T06:54:26.525Z,64.50
2023-03-17T06:56:53.146Z,65.70
2023-03-17T06:59:20.090Z,60.20
2023-03-17T07:01:48.628Z,61.00
2023-03-17T07:04:15.844Z,61.90
2023-03-17T07:06:42.690Z,60.70
2023-03-17T07:09:10.880Z,61.80
2023-03-17T07:11:37.265Z,60.70
2023-03-17T07:14:04.882Z,58.30
2023-03-17T07:16:32.326Z,59.60
2023-03-17T07:18:59.324Z,57.50
2023-03-17T07:21:26.275Z,56.80
2023-03-17T07:23:53.015Z,58.90
2023-03-17T07:26:19.443Z,59.90
2023-03-17T07:28:46.095Z,61.40
2023-03-17T07:31:13.882Z,60.80
2023-03-17T07:33:40.588Z,62.50
2023-03-17T07:36:08.830Z,60.10
2023-03-17T07:38:35.588Z,61.80
2023-03-17T07:41:03.052Z,62.50
2023-03-17T07:43:29.378Z,61.60
2023-03-17T07:45:55.861Z,62.30
2023-03-17T07:48:22.727Z,61.70
2023-03-17T07:50:49.808Z,63.50
2023-03-17T07:53:16.338Z,61.70
2023-03-17T07:55:42.663Z,61.90
2023-03-17T07:58:09.896Z,61.50
2023-03-17T08:00:38.176Z,60.60
2023-03-17T08:03:10.408Z,61.50
2023-03-17T08:05:37.333Z,59.70
2023-03-17T08:08:06.004Z,58.60
2023-03-17T08:10:32.855Z,57.50
2023-03-17T08:12:59.257Z,58.00
2023-03-17T08:15:25.760Z,57.80
2023-03-17T08:17:53.047Z,55.00
2023-03-17T08:20:19.468Z,56.20
2023-03-17T08:22:46.023Z,56.30
2023-03-17T08:25:12.446Z,58.40
2023-03-17T08:27:39.691Z,56.60
2023-03-17T08:30:07.402Z,60.70
2023-03-17T08:32:33.935Z,55.70
2023-03-17T08:35:00.795Z,56.40
2023-03-17T08:37:27.265Z,58.80
2023-03-17T08:39:54.018Z,56.90
2023-03-17T08:42:20.757Z,57.70
2023-03-17T08:44:46.915Z,57.10
2023-03-17T08:47:13.314Z,59.00
2023-03-17T08:49:39.612Z,56.80
2023-03-17T08:52:05.945Z,55.40
2023-03-17T08:54:34.753Z,55.70
2023-03-17T08:57:01.230Z,57.30
2023-03-17T08:59:28.127Z,52.10
2023-03-17T09:01:55.131Z,54.60
2023-03-17T09:04:23.099Z,54.20
2023-03-17T09:07:02.291Z,53.50
2023-03-17T09:09:30.472Z,51.50
2023-03-17T09:11:57.619Z,52.50
2023-03-17T09:14:24.356Z,54.70
2023-03-17T09:16:50.705Z,53.90
2023-03-17T09:19:17.411Z,50.60
2023-03-17T09:21:44.623Z,48.90
2023-03-17T09:24:11.183Z,51.70
2023-03-17T09:26:37.453Z,49.80
2023-03-17T09:29:04.809Z,50.70
2023-03-17T09:31:33.074Z,50.50
2023-03-17T09:33:59.824Z,50.00
2023-03-17T09:36:26.125Z,50.90
2023-03-17T09:38:52.956Z,52.00
2023-03-17T09:42:55.193Z,50.40
2023-03-17T09:45:36.124Z,48.30
2023-03-17T09:48:12.284Z,45.20
2023-03-17T09:51:11.906Z,45.90
2023-03-17T09:54:00.572Z,49.30
2023-03-17T09:56:28.450Z,42.70
2023-03-17T09:59:07.548Z,43.60
2023-03-17T10:01:33.997Z,42.10
2023-03-17T10:04:02.507Z,44.00
2023-03-17T10:06:36.132Z,44.20
2023-03-17T10:10:08.467Z,40.70
2023-03-17T10:13:46.534Z,44.10
2023-03-17T10:16:20.312Z,42.20
2023-03-17T10:19:00.156Z,44.00
2023-03-17T10:21:31.322Z,42.10
2023-03-17T10:23:57.986Z,40.10
2023-03-17T10:26:41.315Z,40.20
2023-03-17T10:29:22.389Z,41.80
2023-03-17T10:31:49.156Z,44.00
2023-03-17T10:34:23.264Z,40.70
2023-03-17T10:36:54.169Z,42.50
2023-03-17T10:39:22.323Z,42.10
2023-03-17T10:42:34.981Z,44.70
2023-03-17T10:45:54.013Z,41.10
2023-03-17T10:48:20.257Z,39.30
2023-03-17T10:50:49.478Z,39.00
2023-03-17T10:53:29.588Z,38.20
2023-03-17T10:56:07.294Z,40.90
2023-03-17T10:58:44.367Z,39.30
2023-03-17T11:01:38.550Z,38.70
2023-03-17T11:04:32.318Z,43.40
2023-03-17T11:06:59.559Z,41.20
2023-03-17T11:09:27.475Z,41.60
2023-03-17T11:12:06.105Z,39.40
2023-03-17T11:14:32.962Z,39.60
2023-03-17T11:17:04.050Z,40.40
2023-03-17T11:19:55.172Z,41.10
2023-03-17T11:22:39.963Z,45.40
2023-03-17T11:25:18.840Z,41.30
2023-03-17T11:28:33.092Z,43.40
2023-03-17T11:32:25.912Z,43.70
2023-03-17T11:35:34.061Z,40.50
2023-03-17T11:38:20.038Z,41.40
2023-03-17T11:41:45.405Z,41.20
2023-03-17T11:48:23.396Z,41.10
2023-03-17T11:51:00.824Z,43.60
2023-03-17T11:54:00.670Z,39.50
2023-03-17T11:56:47.402Z,40.20
2023-03-17T11:59:41.271Z,37.60
2023-03-17T12:05:39.686Z,42.20
2023-03-17T12:08:12.114Z,38.50
2023-03-17T12:10:47.077Z,39.30
2023-03-17T12:13:33.511Z,39.20
2023-03-17T12:16:12.413Z,39.50
2023-03-17T12:18:42.428Z,42.40
2023-03-17T12:21:41.433Z,41.70
2023-03-17T12:24:23.248Z,38.70
2023-03-17T12:26:58.668Z,40.40
2023-03-17T12:29:49.146Z,39.40
2023-03-17T12:32:36.272Z,38.20
2023-03-17T12:35:16.919Z,39.50
2023-03-17T12:37:43.162Z,38.80
2023-03-17T12:40:13.796Z,40.90
2023-03-17T12:43:11.970Z,39.50
2023-03-17T12:48:56.376Z,38.70
2023-03-17T12:53:36.300Z,38.00
2023-03-17T12:56:18.936Z,38.70
2023-03-17T12:58:51.606Z,40.60
2023-03-17T13:01:45.716Z,39.00
2023-03-17T13:04:27.243Z,39.40
2023-03-17T13:07:16.524Z,38.70
2023-03-17T13:13:03.078Z,38.30
2023-03-17T13:16:03.898Z,38.80
2023-03-17T13:19:13.341Z,38.90
2023-03-17T13:21:57.224Z,39.20
2023-03-17T13:24:48.610Z,40.60
2023-03-17T13:30:59.178Z,41.30
2023-03-17T13:33:32.271Z,38.10
2023-03-17T13:36:17.444Z,39.70
2023-03-17T13:41:55.016Z,42.10
2023-03-17T13:45:37.818Z,40.60
2023-03-17T13:48:30.197Z,40.00
2023-03-17T13:51:01.659Z,39.90
2023-03-17T13:53:30.653Z,39.80
2023-03-17T14:02:47.599Z,39.70
2023-03-17T14:05:35.757Z,39.10
2023-03-17T14:08:31.827Z,40.50
2023-03-17T14:10:59.966Z,40.20
2023-03-17T14:13:55.681Z,41.70
2023-03-17T14:16:32.035Z,40.30
2023-03-17T14:19:20.671Z,42.10
2023-03-17T14:21:48.439Z,41.20
2023-03-17T14:24:24.449Z,41.90
2023-03-17T14:26:51.534Z,43.10
2023-03-17T14:29:21.348Z,41.50
2023-03-17T14:31:50.493Z,42.70
2023-03-17T14:34:20.392Z,41.80
2023-03-17T14:36:47.059Z,41.40
2023-03-17T14:39:24.905Z,41.90
2023-03-17T14:42:04.432Z,41.70
2023-03-17T14:44:41.553Z,42.60
2023-03-17T14:47:20.748Z,41.20
2023-03-17T14:49:49.350Z,43.70
2023-03-17T14:52:26.316Z,43.20
2023-03-17T14:54:53.623Z,42.40
2023-03-17T14:57:32.067Z,41.00
2023-03-17T15:03:34.174Z,40.00
2023-03-17T15:06:37.444Z,41.80
2023-03-17T15:09:25.515Z,42.00
2023-03-17T15:11:54.772Z,41.90
2023-03-17T15:14:39.244Z,41.30
2023-03-17T15:17:13.083Z,40.50
2023-03-17T15:19:41.796Z,40.60
2023-03-17T15:23:09.355Z,41.80
2023-03-17T15:25:42.077Z,43.10
2023-03-17T15:28:18.617Z,43.50
2023-03-17T15:30:50.030Z,43.80
2023-03-17T15:33:39.900Z,45.40
2023-03-17T15:36:07.474Z,44.00
2023-03-17T15:38:36.759Z,44.60
2023-03-17T15:41:03.173Z,45.40
2023-03-17T15:43:29.651Z,45.00
2023-03-17T15:46:07.580Z,45.20
2023-03-17T15:48:35.609Z,44.90
2023-03-17T15:51:02.620Z,45.40
2023-03-17T15:53:30.505Z,45.00
2023-03-17T15:55:56.737Z,45.40
2023-03-17T15:58:23.467Z,45.00
2023-03-17T16:00:54.101Z,45.10
2023-03-17T16:03:28.751Z,46.00
2023-03-17T16:05:55.629Z,46.80
2023-03-17T16:08:22.530Z,45.90
2023-03-17T16:10:49.040Z,46.50
2023-03-17T16:13:15.476Z,47.60
2023-03-17T16:15:42.893Z,47.50
2023-03-17T16:18:14.515Z,47.90
2023-03-17T16:20:42.492Z,48.20
2023-03-17T16:23:18.811Z,48.20
2023-03-17T16:25:45.377Z,49.00
2023-03-17T16:28:22.127Z,48.80
2023-03-17T16:30:48.701Z,49.20
2023-03-17T16:33:27.974Z,49.50
2023-03-17T16:35:57.076Z,50.80
2023-03-17T16:38:25.100Z,50.80
2023-03-17T16:40:52.724Z,50.40
2023-03-17T16:43:28.931Z,50.10
2023-03-17T16:46:01.389Z,50.10
2023-03-17T16:48:28.990Z,50.60
2023-03-17T16:50:55.952Z,50.30
2023-03-17T16:53:22.142Z,50.10
2023-03-17T16:55:48.728Z,51.00
2023-03-17T16:58:22.824Z,50.60
2023-03-17T17:00:49.886Z,50.80
2023-03-17T17:03:16.640Z,50.80
2023-03-17T17:05:43.638Z,51.60
2023-03-17T17:08:09.967Z,52.00
2023-03-17T17:10:36.697Z,51.80
2023-03-17T17:13:07.102Z,51.60
2023-03-17T17:15:34.859Z,51.60
2023-03-17T17:18:21.122Z,51.40
2023-03-17T17:20:47.758Z,51.40
2023-03-17T17:23:16.135Z,51.30
2023-03-17T17:25:42.775Z,51.30
2023-03-17T17:28:09.187Z,61.40
2023-03-17T17:30:35.435Z,51.90
2023-03-17T17:33:01.958Z,51.50
2023-03-17T17:35:32.385Z,51.50
2023-03-17T17:38:00.343Z,53.40
2023-03-17T17:40:26.796Z,52.60
2023-03-17T17:42:53.495Z,53.40
2023-03-17T17:45:19.667Z,53.50
2023-03-17T17:47:47.001Z,53.80
2023-03-17T17:50:19.800Z,54.40
2023-03-17T17:52:47.751Z,53.80
2023-03-17T17:55:14.581Z,53.80
2023-03-17T17:57:42.371Z,54.50
2023-03-17T18:00:12.187Z,55.10
2023-03-17T18:02:38.368Z,55.00
2023-03-17T18:05:05.806Z,54.90
2023-03-17T18:07:32.287Z,66.80
2023-03-17T18:09:58.805Z,54.90
2023-03-17T18:12:25.050Z,54.90
2023-03-17T18:14:51.769Z,55.10
2023-03-17T18:17:21.016Z,55.40
2023-03-17T18:19:48.749Z,55.70
2023-03-17T18:22:16.367Z,64.90
2023-03-17T18:24:44.863Z,56.30
2023-03-17T18:27:11.155Z,57.40
2023-03-17T18:32:04.642Z,55.80
2023-03-17T18:34:38.035Z,58.70
2023-03-17T18:37:07.054Z,57.90
2023-03-17T18:39:34.147Z,60.50
2023-03-17T18:42:01.079Z,58.20
2023-03-17T18:44:28.549Z,58.20
2023-03-17T18:46:55.184Z,59.70
2023-03-17T18:49:24.540Z,62.20
2023-03-17T18:51:51.005Z,71.90
2023-03-17T18:54:17.715Z,61.60
2023-03-17T18:56:44.086Z,63.10
2023-03-17T19:01:38.519Z,61.00
2023-03-17T19:04:05.344Z,63.80
2023-03-17T19:06:33.325Z,63.60
2023-03-17T19:09:00.383Z,62.30
2023-03-17T19:11:30.003Z,61.80
2023-03-17T19:13:58.155Z,62.30
2023-03-17T19:16:30.112Z,62.10
2023-03-17T19:18:57.178Z,61.60
2023-03-17T19:21:24.025Z,62.00
2023-03-17T19:23:51.498Z,62.20
2023-03-17T19:26:18.618Z,61.90
2023-03-17T19:28:46.134Z,63.10
2023-03-17T19:31:12.543Z,63.10
2023-03-17T19:33:41.525Z,63.00
2023-03-17T19:36:12.299Z,63.20
2023-03-17T19:38:39.473Z,63.80
2023-03-17T19:41:06.829Z,63.00
2023-03-17T19:43:40.707Z,63.20
2023-03-17T19:46:09.416Z,62.50
2023-03-17T19:48:37.266Z,62.80
2023-03-17T19:51:04.783Z,63.00
2023-03-17T19:53:31.643Z,62.30
2023-03-17T19:55:59.161Z,62.90
2023-03-17T19:58:26.814Z,63.30
2023-03-17T20:00:53.096Z,63.30
2023-03-17T20:03:19.353Z,62.90
2023-03-17T20:05:45.921Z,63.60
2023-03-17T20:08:12.192Z,64.40
2023-03-17T20:10:38.470Z,63.60
2023-03-17T20:13:04.961Z,63.10
2023-03-17T20:15:31.760Z,63.80
2023-03-17T20:17:58.670Z,64.30
2023-03-17T20:20:25.474Z,77.00
2023-03-17T20:25:19.984Z,67.20
2023-03-17T20:27:46.303Z,68.80
2023-03-17T20:30:13.067Z,69.00
2023-03-17T20:35:08.176Z,78.90
2023-03-17T20:37:35.067Z,69.30
2023-03-17T20:40:04.120Z,70.00
2023-03-17T20:42:30.628Z,69.80
2023-03-17T20:47:23.716Z,69.20
2023-03-17T20:49:51.062Z,70.10
2023-03-17T20:52:17.621Z,80.00
2023-03-17T20:54:44.881Z,70.00
2023-03-17T20:57:13.366Z,70.80
2023-03-17T20:59:41.248Z,70.10
2023-03-17T21:02:15.332Z,70.40
2023-03-17T21:04:46.293Z,70.40
2023-03-17T21:07:14.330Z,82.40
2023-03-17T21:09:42.079Z,70.80
2023-03-17T21:12:14.767Z,80.90
2023-03-17T21:14:44.173Z,73.80
2023-03-17T21:17:12.465Z,72.20
2023-03-17T21:19:39.379Z,72.70
2023-03-17T21:22:06.425Z,73.40
2023-03-17T21:24:35.223Z,75.00
2023-03-17T21:27:02.909Z,75.80
2023-03-17T21:29:30.111Z,75.40
2023-03-17T21:31:56.390Z,76.40
2023-03-17T21:34:23.891Z,76.40
2023-03-17T21:36:51.537Z,77.10
2023-03-17T21:39:18.965Z,77.30
2023-03-17T21:41:48.017Z,77.90
2023-03-17T21:44:15.217Z,78.20
2023-03-17T21:46:44.991Z,76.40
2023-03-17T21:49:11.717Z,76.20
2023-03-17T21:51:37.935Z,75.40
2023-03-17T21:54:04.778Z,76.10
2023-03-17T21:56:31.823Z,77.20
2023-03-17T22:01:27.272Z,77.30
2023-03-17T22:03:54.061Z,78.70
2023-03-17T22:06:20.318Z,79.10
2023-03-17T22:08:48.024Z,78.70
2023-03-17T22:11:18.412Z,78.60
2023-03-17T22:13:46.344Z,78.90
2023-03-17T22:16:13.033Z,79.20
2023-03-17T22:18:39.388Z,79.10
2023-03-17T22:21:06.768Z,78.80
2023-03-17T22:23:39.956Z,78.80
2023-03-17T22:26:11.773Z,90.00
2023-03-17T22:28:38.813Z,78.80
2023-03-17T22:31:19.589Z,80.10
2023-03-17T22:33:47.203Z,79.10
2023-03-17T22:36:15.210Z,79.90
2023-03-17T22:38:41.732Z,80.00
2023-03-17T22:41:12.635Z,79.90
2023-03-17T22:43:39.773Z,81.30
2023-03-17T22:46:08.901Z,81.90
2023-03-17T22:48:35.462Z,82.90
2023-03-17T22:51:02.870Z,82.20
2023-03-17T22:53:32.172Z,82.30
2023-03-17T22:56:01.458Z,82.30
2023-03-17T22:58:29.386Z,81.80
2023-03-17T23:00:56.635Z,81.20
2023-03-17T23:03:23.884Z,81.20
2023-03-17T23:05:53.562Z,81.70
2023-03-17T23:08:20.069Z,83.20
2023-03-17T23:10:47.171Z,83.00
2023-03-17T23:13:13.381Z,82.40
2023-03-17T23:15:41.172Z,81.90
2023-03-17T23:18:09.827Z,81.40
2023-03-17T23:20:36.943Z,81.50
2023-03-17T23:23:06.461Z,81.30
2023-03-17T23:25:35.330Z,91.00
2023-03-17T23:28:03.579Z,81.00
2023-03-17T23:30:31.330Z,81.30
2023-03-17T23:32:59.194Z,81.50
2023-03-17T23:35:25.617Z,81.90
2023-03-17T23:37:51.869Z,81.90
2023-03-17T23:40:18.102Z,81.30
2023-03-17T23:42:45.502Z,80.40
2023-03-17T23:45:11.814Z,80.00
2023-03-17T23:47:38.198Z,79.60
2023-03-17T23:50:05.296Z,79.50
2023-03-17T23:52:32.257Z,79.60
2023-03-17T23:54:58.785Z,80.00
2023-03-17T23:57:26.199Z,80.70
2023-03-17T23:59:52.511Z,80.80
